sensor_id;sensor_type;location;lat;lon;timestamp;pressure;altitude;pressure_sealevel;temperature;humidity
80712;BME280;70078;51.596;5.678;2023-08-21T00:01:51;102141.00;;;20.64;64.57
80712;BME280;70078;51.596;5.678;2023-08-21T00:04:17;102139.34;;;20.69;64.83
80712;BME280;70078;51.596;5.678;2023-08-21T00:06:43;102176.97;;;20.79;65.08
80712;BME280;70078;51.596;5.678;2023-08-21T00:09:08;102128.00;;;20.53;65.74
80712;BME280;70078;51.596;5.678;2023-08-21T00:11:34;102171.94;;;20.76;65.87
80712;BME280;70078;51.596;5.678;2023-08-21T00:14:00;102145.56;;;20.57;66.10
80712;BME280;70078;51.596;5.678;2023-08-21T00:16:25;102137.31;;;20.43;65.82
80712;BME280;70078;51.596;5.678;2023-08-21T00:18:52;102149.28;;;20.49;66.02
80712;BME280;70078;51.596;5.678;2023-08-21T00:21:17;102162.88;;;20.56;66.07
80712;BME280;70078;51.596;5.678;2023-08-21T00:23:42;102171.22;;;20.61;66.50
80712;BME280;70078;51.596;5.678;2023-08-21T00:26:08;102132.47;;;20.39;66.25
80712;BME280;70078;51.596;5.678;2023-08-21T00:28:33;102147.59;;;20.48;66.86
80712;BME280;70078;51.596;5.678;2023-08-21T00:31:03;102144.03;;;20.47;66.76
80712;BME280;70078;51.596;5.678;2023-08-21T00:33:30;102162.47;;;20.59;66.92
80712;BME280;70078;51.596;5.678;2023-08-21T00:35:56;102150.56;;;20.32;67.39
80712;BME280;70078;51.596;5.678;2023-08-21T00:38:21;102144.72;;;20.28;67.74
80712;BME280;70078;51.596;5.678;2023-08-21T00:40:47;102165.63;;;20.34;67.45
80712;BME280;70078;51.596;5.678;2023-08-21T00:43:12;102158.97;;;20.37;67.49
80712;BME280;70078;51.596;5.678;2023-08-21T00:45:40;102150.16;;;20.28;67.36
80712;BME280;70078;51.596;5.678;2023-08-21T00:48:07;102168.13;;;20.36;67.42
80712;BME280;70078;51.596;5.678;2023-08-21T00:50:32;102159.94;;;20.29;67.40
80712;BME280;70078;51.596;5.678;2023-08-21T00:52:58;102172.78;;;20.42;67.32
80712;BME280;70078;51.596;5.678;2023-08-21T00:55:23;102180.06;;;20.41;67.26
80712;BME280;70078;51.596;5.678;2023-08-21T00:57:49;102132.19;;;20.27;67.34
80712;BME280;70078;51.596;5.678;2023-08-21T01:00:15;102119.44;;;20.21;67.91
80712;BME280;70078;51.596;5.678;2023-08-21T01:02:40;102118.69;;;20.06;68.33
80712;BME280;70078;51.596;5.678;2023-08-21T01:05:07;102109.69;;;19.99;68.55
80712;BME280;70078;51.596;5.678;2023-08-21T01:07:38;102146.38;;;20.01;68.81
80712;BME280;70078;51.596;5.678;2023-08-21T01:10:16;102135.13;;;19.98;68.59
80712;BME280;70078;51.596;5.678;2023-08-21T01:12:51;102157.91;;;20.03;68.63
80712;BME280;70078;51.596;5.678;2023-08-21T01:15:19;102135.47;;;19.88;68.97
80712;BME280;70078;51.596;5.678;2023-08-21T01:17:45;102140.47;;;19.91;68.44
80712;BME280;70078;51.596;5.678;2023-08-21T01:20:11;102158.06;;;20.02;68.69
80712;BME280;70078;51.596;5.678;2023-08-21T01:22:41;102143.78;;;19.86;68.92
80712;BME280;70078;51.596;5.678;2023-08-21T01:25:15;102120.00;;;19.60;69.27
80712;BME280;70078;51.596;5.678;2023-08-21T01:27:44;102151.31;;;19.91;68.85
80712;BME280;70078;51.596;5.678;2023-08-21T01:30:10;102154.19;;;19.83;69.52
80712;BME280;70078;51.596;5.678;2023-08-21T01:32:50;102122.56;;;19.68;69.56
80712;BME280;70078;51.596;5.678;2023-08-21T01:35:17;102142.19;;;19.71;69.72
80712;BME280;70078;51.596;5.678;2023-08-21T01:37:43;102131.69;;;19.61;70.02
80712;BME280;70078;51.596;5.678;2023-08-21T01:40:09;102164.75;;;19.78;69.18
80712;BME280;70078;51.596;5.678;2023-08-21T01:42:34;102146.75;;;19.70;69.00
80712;BME280;70078;51.596;5.678;2023-08-21T01:45:00;102129.81;;;19.61;69.26
80712;BME280;70078;51.596;5.678;2023-08-21T01:47:25;102132.59;;;19.68;69.16
80712;BME280;70078;51.596;5.678;2023-08-21T01:49:51;102098.66;;;19.51;69.41
80712;BME280;70078;51.596;5.678;2023-08-21T01:52:19;102142.44;;;19.76;69.65
80712;BME280;70078;51.596;5.678;2023-08-21T01:54:44;102148.25;;;19.73;69.89
80712;BME280;70078;51.596;5.678;2023-08-21T01:57:13;102144.69;;;19.72;70.55
80712;BME280;70078;51.596;5.678;2023-08-21T01:59:38;102138.44;;;19.50;70.92
80712;BME280;70078;51.596;5.678;2023-08-21T02:02:04;102112.41;;;19.34;70.74
80712;BME280;70078;51.596;5.678;2023-08-21T02:04:29;102125.47;;;19.46;70.10
80712;BME280;70078;51.596;5.678;2023-08-21T02:06:54;102144.22;;;19.47;70.12
80712;BME280;70078;51.596;5.678;2023-08-21T02:09:20;102123.31;;;19.41;70.04
80712;BME280;70078;51.596;5.678;2023-08-21T02:11:45;102141.97;;;19.51;70.17
80712;BME280;70078;51.596;5.678;2023-08-21T02:14:10;102078.00;;;19.07;70.18
80712;BME280;70078;51.596;5.678;2023-08-21T02:16:36;102101.59;;;19.13;70.62
80712;BME280;70078;51.596;5.678;2023-08-21T02:19:01;102132.81;;;19.30;69.96
80712;BME280;70078;51.596;5.678;2023-08-21T02:21:26;102157.91;;;19.39;69.92
80712;BME280;70078;51.596;5.678;2023-08-21T02:23:52;102115.97;;;19.13;69.98
80712;BME280;70078;51.596;5.678;2023-08-21T02:26:17;102141.22;;;19.35;69.57
80712;BME280;70078;51.596;5.678;2023-08-21T02:28:44;102122.59;;;19.11;69.89
80712;BME280;70078;51.596;5.678;2023-08-21T02:31:10;102133.41;;;19.11;69.95
80712;BME280;70078;51.596;5.678;2023-08-21T02:33:36;102128.13;;;19.03;70.12
80712;BME280;70078;51.596;5.678;2023-08-21T02:36:01;102124.66;;;19.09;70.25
80712;BME280;70078;51.596;5.678;2023-08-21T02:38:28;102128.84;;;19.11;70.29
80712;BME280;70078;51.596;5.678;2023-08-21T02:40:54;102139.22;;;19.08;70.26
80712;BME280;70078;51.596;5.678;2023-08-21T02:43:19;102146.44;;;19.01;70.56
80712;BME280;70078;51.596;5.678;2023-08-21T02:45:45;102104.31;;;18.77;70.22
80712;BME280;70078;51.596;5.678;2023-08-21T02:48:10;102153.78;;;19.07;70.10
80712;BME280;70078;51.596;5.678;2023-08-21T02:50:35;102118.56;;;18.85;69.88
80712;BME280;70078;51.596;5.678;2023-08-21T02:53:01;102122.31;;;18.84;69.96
80712;BME280;70078;51.596;5.678;2023-08-21T02:55:26;102150.56;;;18.97;70.08
80712;BME280;70078;51.596;5.678;2023-08-21T02:57:52;102130.53;;;18.76;70.61
80712;BME280;70078;51.596;5.678;2023-08-21T03:00:17;102140.13;;;18.79;71.20
80712;BME280;70078;51.596;5.678;2023-08-21T03:02:42;102104.00;;;18.57;71.11
80712;BME280;70078;51.596;5.678;2023-08-21T03:05:10;102100.13;;;18.60;71.34
80712;BME280;70078;51.596;5.678;2023-08-21T03:07:35;102115.13;;;18.62;71.72
80712;BME280;70078;51.596;5.678;2023-08-21T03:10:00;102115.88;;;18.56;72.00
80712;BME280;70078;51.596;5.678;2023-08-21T03:12:27;102135.28;;;18.60;71.88
80712;BME280;70078;51.596;5.678;2023-08-21T03:14:52;102124.47;;;18.60;71.74
80712;BME280;70078;51.596;5.678;2023-08-21T03:17:18;102149.56;;;18.68;71.45
80712;BME280;70078;51.596;5.678;2023-08-21T03:19:43;102128.00;;;18.60;71.73
80712;BME280;70078;51.596;5.678;2023-08-21T03:22:09;102129.38;;;18.56;72.06
80712;BME280;70078;51.596;5.678;2023-08-21T03:24:34;102146.47;;;18.71;72.25
80712;BME280;70078;51.596;5.678;2023-08-21T03:26:59;102125.41;;;18.52;72.28
80712;BME280;70078;51.596;5.678;2023-08-21T03:29:25;102129.09;;;18.51;72.22
80712;BME280;70078;51.596;5.678;2023-08-21T03:31:53;102148.81;;;18.60;72.68
80712;BME280;70078;51.596;5.678;2023-08-21T03:34:19;102144.31;;;18.52;72.67
80712;BME280;70078;51.596;5.678;2023-08-21T03:36:45;102137.59;;;18.48;72.67
80712;BME280;70078;51.596;5.678;2023-08-21T03:39:10;102131.53;;;18.46;72.53
80712;BME280;70078;51.596;5.678;2023-08-21T03:41:35;102133.97;;;18.41;72.44
80712;BME280;70078;51.596;5.678;2023-08-21T03:44:01;102137.06;;;18.38;71.89
80712;BME280;70078;51.596;5.678;2023-08-21T03:46:26;102118.66;;;18.18;72.13
80712;BME280;70078;51.596;5.678;2023-08-21T03:48:51;102142.47;;;18.38;71.62
80712;BME280;70078;51.596;5.678;2023-08-21T03:51:17;102112.31;;;18.26;71.62
80712;BME280;70078;51.596;5.678;2023-08-21T03:53:42;102155.78;;;18.54;71.65
80712;BME280;70078;51.596;5.678;2023-08-21T03:56:08;102134.06;;;18.33;72.37
80712;BME280;70078;51.596;5.678;2023-08-21T03:58:33;102152.16;;;18.47;72.14
80712;BME280;70078;51.596;5.678;2023-08-21T04:00:59;102128.25;;;18.36;72.77
80712;BME280;70078;51.596;5.678;2023-08-21T04:03:24;102144.97;;;18.39;72.81
80712;BME280;70078;51.596;5.678;2023-08-21T04:05:53;102121.56;;;18.17;73.40
80712;BME280;70078;51.596;5.678;2023-08-21T04:08:18;102128.00;;;18.16;72.95
80712;BME280;70078;51.596;5.678;2023-08-21T04:10:44;102133.13;;;18.25;73.03
80712;BME280;70078;51.596;5.678;2023-08-21T04:13:09;102101.13;;;17.99;73.65
80712;BME280;70078;51.596;5.678;2023-08-21T04:15:34;102151.31;;;18.32;73.75
80712;BME280;70078;51.596;5.678;2023-08-21T04:18:00;102138.69;;;18.09;73.76
80712;BME280;70078;51.596;5.678;2023-08-21T04:20:25;102160.88;;;18.19;74.51
80712;BME280;70078;51.596;5.678;2023-08-21T04:22:51;102160.97;;;18.11;74.68
80712;BME280;70078;51.596;5.678;2023-08-21T04:25:16;102116.75;;;17.89;74.42
80712;BME280;70078;51.596;5.678;2023-08-21T04:27:42;102144.56;;;18.13;74.12
80712;BME280;70078;51.596;5.678;2023-08-21T04:30:08;102124.88;;;18.04;74.26
80712;BME280;70078;51.596;5.678;2023-08-21T04:32:34;102147.84;;;18.08;74.51
80712;BME280;70078;51.596;5.678;2023-08-21T04:34:59;102128.06;;;17.93;74.52
80712;BME280;70078;51.596;5.678;2023-08-21T04:37:25;102136.81;;;17.95;74.64
80712;BME280;70078;51.596;5.678;2023-08-21T04:39:51;102150.97;;;17.97;74.49
80712;BME280;70078;51.596;5.678;2023-08-21T04:42:17;102163.94;;;18.01;74.28
80712;BME280;70078;51.596;5.678;2023-08-21T04:44:42;102173.06;;;18.00;74.03
80712;BME280;70078;51.596;5.678;2023-08-21T04:47:25;102139.47;;;17.80;74.26
80712;BME280;70078;51.596;5.678;2023-08-21T04:49:54;102157.97;;;17.91;74.40
80712;BME280;70078;51.596;5.678;2023-08-21T04:52:21;102170.06;;;17.95;74.37
80712;BME280;70078;51.596;5.678;2023-08-21T04:54:50;102181.00;;;18.02;73.96
80712;BME280;70078;51.596;5.678;2023-08-21T04:57:16;102178.94;;;18.04;74.29
80712;BME280;70078;51.596;5.678;2023-08-21T04:59:43;102179.84;;;17.96;74.48
80712;BME280;70078;51.596;5.678;2023-08-21T05:02:08;102176.63;;;18.01;74.83
80712;BME280;70078;51.596;5.678;2023-08-21T05:04:35;102189.31;;;18.15;74.61
80712;BME280;70078;51.596;5.678;2023-08-21T05:07:01;102182.41;;;18.13;75.76
80712;BME280;70078;51.596;5.678;2023-08-21T05:09:26;102182.59;;;18.11;76.11
80712;BME280;70078;51.596;5.678;2023-08-21T05:11:52;102174.47;;;18.11;76.22
80712;BME280;70078;51.596;5.678;2023-08-21T05:14:17;102159.00;;;18.05;75.50
80712;BME280;70078;51.596;5.678;2023-08-21T05:16:45;102199.78;;;18.33;75.57
80712;BME280;70078;51.596;5.678;2023-08-21T05:19:10;102204.66;;;18.38;75.36
80712;BME280;70078;51.596;5.678;2023-08-21T05:21:36;102166.88;;;18.29;75.60
80712;BME280;70078;51.596;5.678;2023-08-21T05:24:01;102187.59;;;18.52;75.56
80712;BME280;70078;51.596;5.678;2023-08-21T05:26:26;102198.59;;;18.65;75.34
80712;BME280;70078;51.596;5.678;2023-08-21T05:28:52;102185.63;;;18.61;75.39
80712;BME280;70078;51.596;5.678;2023-08-21T05:31:17;102194.13;;;18.72;75.92
80712;BME280;70078;51.596;5.678;2023-08-21T05:33:42;102174.81;;;18.61;75.50
80712;BME280;70078;51.596;5.678;2023-08-21T05:36:08;102168.69;;;18.67;75.44
80712;BME280;70078;51.596;5.678;2023-08-21T05:38:33;102208.78;;;18.93;75.44
80712;BME280;70078;51.596;5.678;2023-08-21T05:40:58;102202.97;;;18.96;75.08
80712;BME280;70078;51.596;5.678;2023-08-21T05:43:24;102203.91;;;19.03;75.13
80712;BME280;70078;51.596;5.678;2023-08-21T05:45:50;102182.38;;;18.95;75.08
80712;BME280;70078;51.596;5.678;2023-08-21T05:48:16;102148.81;;;18.74;74.79
80712;BME280;70078;51.596;5.678;2023-08-21T05:50:44;102180.97;;;18.99;74.54
80712;BME280;70078;51.596;5.678;2023-08-21T05:53:09;102177.53;;;19.05;74.15
80712;BME280;70078;51.596;5.678;2023-08-21T05:55:36;102213.75;;;19.25;74.58
80712;BME280;70078;51.596;5.678;2023-08-21T05:58:02;102168.56;;;19.04;74.23
80712;BME280;70078;51.596;5.678;2023-08-21T06:00:27;102195.38;;;19.35;74.07
80712;BME280;70078;51.596;5.678;2023-08-21T06:02:53;102224.19;;;19.58;74.00
80712;BME280;70078;51.596;5.678;2023-08-21T06:05:18;102193.81;;;19.48;73.55
80712;BME280;70078;51.596;5.678;2023-08-21T06:07:43;102216.84;;;19.73;73.08
80712;BME280;70078;51.596;5.678;2023-08-21T06:10:09;102208.72;;;19.73;73.42
80712;BME280;70078;51.596;5.678;2023-08-21T06:12:38;102095.78;;;19.16;73.06
80712;BME280;70078;51.596;5.678;2023-08-21T06:15:03;102213.47;;;19.92;72.49
80712;BME280;70078;51.596;5.678;2023-08-21T06:17:29;102210.97;;;19.91;72.55
80712;BME280;70078;51.596;5.678;2023-08-21T06:19:54;102196.06;;;19.80;72.45
80712;BME280;70078;51.596;5.678;2023-08-21T06:22:21;102200.63;;;20.01;72.35
80712;BME280;70078;51.596;5.678;2023-08-21T06:24:47;102206.50;;;20.05;72.11
80712;BME280;70078;51.596;5.678;2023-08-21T06:27:12;102195.50;;;20.13;71.85
80712;BME280;70078;51.596;5.678;2023-08-21T06:29:37;102225.81;;;20.44;71.42
80712;BME280;70078;51.596;5.678;2023-08-21T06:32:05;102213.91;;;20.45;71.04
80712;BME280;70078;51.596;5.678;2023-08-21T06:34:30;102227.19;;;20.62;70.66
80712;BME280;70078;51.596;5.678;2023-08-21T06:36:56;102199.56;;;20.52;69.47
80712;BME280;70078;51.596;5.678;2023-08-21T06:39:21;102218.28;;;20.74;69.80
80712;BME280;70078;51.596;5.678;2023-08-21T06:41:46;102212.09;;;20.87;68.79
80712;BME280;70078;51.596;5.678;2023-08-21T06:44:12;102234.81;;;21.21;68.19
80712;BME280;70078;51.596;5.678;2023-08-21T06:46:37;102225.84;;;21.27;66.72
80712;BME280;70078;51.596;5.678;2023-08-21T06:49:02;102242.59;;;21.30;67.11
80712;BME280;70078;51.596;5.678;2023-08-21T06:51:28;102196.53;;;21.16;67.38
80712;BME280;70078;51.596;5.678;2023-08-21T06:53:54;102226.13;;;21.45;67.32
80712;BME280;70078;51.596;5.678;2023-08-21T06:56:19;102189.78;;;21.40;66.35
80712;BME280;70078;51.596;5.678;2023-08-21T06:58:44;102235.22;;;21.79;66.14
80712;BME280;70078;51.596;5.678;2023-08-21T07:01:10;102220.78;;;21.72;65.78
80712;BME280;70078;51.596;5.678;2023-08-21T07:03:35;102244.22;;;21.93;65.73
80712;BME280;70078;51.596;5.678;2023-08-21T07:06:00;102245.06;;;22.06;65.49
80712;BME280;70078;51.596;5.678;2023-08-21T07:08:26;102223.09;;;21.88;64.87
80712;BME280;70078;51.596;5.678;2023-08-21T07:10:52;102243.44;;;22.12;64.02
80712;BME280;70078;51.596;5.678;2023-08-21T07:13:18;102238.00;;;22.25;62.81
80712;BME280;70078;51.596;5.678;2023-08-21T07:15:44;102215.00;;;22.08;63.48
80712;BME280;70078;51.596;5.678;2023-08-21T07:18:09;102193.63;;;21.85;61.96
80712;BME280;70078;51.596;5.678;2023-08-21T07:20:34;102237.16;;;22.25;61.53
80712;BME280;70078;51.596;5.678;2023-08-21T07:23:00;102221.06;;;22.17;61.35
80712;BME280;70078;51.596;5.678;2023-08-21T07:25:26;102230.44;;;22.27;61.08
80712;BME280;70078;51.596;5.678;2023-08-21T07:27:52;102217.91;;;22.33;60.26
80712;BME280;70078;51.596;5.678;2023-08-21T07:30:21;102250.91;;;22.76;60.69
80712;BME280;70078;51.596;5.678;2023-08-21T07:32:48;102242.34;;;22.86;61.07
80712;BME280;70078;51.596;5.678;2023-08-21T07:35:14;102206.94;;;22.73;60.60
80712;BME280;70078;51.596;5.678;2023-08-21T07:37:39;102195.19;;;22.92;60.31
80712;BME280;70078;51.596;5.678;2023-08-21T07:40:08;102216.78;;;23.32;59.17
80712;BME280;70078;51.596;5.678;2023-08-21T07:42:33;102214.81;;;23.52;58.69
80712;BME280;70078;51.596;5.678;2023-08-21T07:44:59;102194.72;;;23.78;58.33
80712;BME280;70078;51.596;5.678;2023-08-21T07:47:26;102209.72;;;23.62;58.32
80712;BME280;70078;51.596;5.678;2023-08-21T07:49:52;102233.19;;;23.95;57.32
80712;BME280;70078;51.596;5.678;2023-08-21T07:52:17;102240.78;;;23.93;57.30
80712;BME280;70078;51.596;5.678;2023-08-21T07:54:42;102225.66;;;23.97;56.84
80712;BME280;70078;51.596;5.678;2023-08-21T07:57:08;102231.94;;;24.22;56.08
80712;BME280;70078;51.596;5.678;2023-08-21T07:59:33;102222.31;;;24.45;55.68
80712;BME280;70078;51.596;5.678;2023-08-21T08:01:58;102231.28;;;24.70;54.61
80712;BME280;70078;51.596;5.678;2023-08-21T08:04:25;102243.81;;;24.96;54.84
80712;BME280;70078;51.596;5.678;2023-08-21T08:06:51;102221.88;;;25.03;53.78
80712;BME280;70078;51.596;5.678;2023-08-21T08:09:16;102263.59;;;25.46;53.09
80712;BME280;70078;51.596;5.678;2023-08-21T08:11:41;102248.66;;;25.61;52.44
80712;BME280;70078;51.596;5.678;2023-08-21T08:14:07;102262.00;;;25.57;51.39
80712;BME280;70078;51.596;5.678;2023-08-21T08:16:32;102233.56;;;25.28;52.41
80712;BME280;70078;51.596;5.678;2023-08-21T08:18:57;102207.63;;;25.19;52.47
80712;BME280;70078;51.596;5.678;2023-08-21T08:21:24;102271.13;;;25.81;51.48
80712;BME280;70078;51.596;5.678;2023-08-21T08:23:49;102248.56;;;25.97;50.02
80712;BME280;70078;51.596;5.678;2023-08-21T08:26:14;102236.31;;;25.88;50.69
80712;BME280;70078;51.596;5.678;2023-08-21T08:28:41;102231.13;;;26.10;50.29
80712;BME280;70078;51.596;5.678;2023-08-21T08:31:07;102229.44;;;26.21;50.11
80712;BME280;70078;51.596;5.678;2023-08-21T08:33:39;102262.34;;;26.56;50.20
80712;BME280;70078;51.596;5.678;2023-08-21T08:36:04;102247.25;;;26.53;49.75
80712;BME280;70078;51.596;5.678;2023-08-21T08:38:29;102254.69;;;26.93;48.27
80712;BME280;70078;51.596;5.678;2023-08-21T08:40:55;102237.09;;;26.66;48.64
80712;BME280;70078;51.596;5.678;2023-08-21T08:43:22;102253.84;;;27.16;47.36
80712;BME280;70078;51.596;5.678;2023-08-21T08:45:50;102256.16;;;27.36;46.82
80712;BME280;70078;51.596;5.678;2023-08-21T08:48:19;102261.63;;;27.07;46.64
80712;BME280;70078;51.596;5.678;2023-08-21T08:50:45;102230.09;;;27.50;45.16
80712;BME280;70078;51.596;5.678;2023-08-21T08:53:12;102255.47;;;27.86;45.55
80712;BME280;70078;51.596;5.678;2023-08-21T08:55:39;102221.47;;;27.58;45.92
80712;BME280;70078;51.596;5.678;2023-08-21T08:58:04;102241.50;;;28.21;45.77
80712;BME280;70078;51.596;5.678;2023-08-21T09:00:31;102263.66;;;28.31;45.67
80712;BME280;70078;51.596;5.678;2023-08-21T09:02:57;102256.50;;;28.47;44.05
80712;BME280;70078;51.596;5.678;2023-08-21T09:05:23;102236.16;;;28.87;44.34
80712;BME280;70078;51.596;5.678;2023-08-21T09:10:33;102221.47;;;29.47;44.05
80712;BME280;70078;51.596;5.678;2023-08-21T09:13:01;102258.25;;;29.14;44.45
80712;BME280;70078;51.596;5.678;2023-08-21T09:15:30;102253.78;;;29.29;43.87
80712;BME280;70078;51.596;5.678;2023-08-21T09:17:55;102240.34;;;29.55;43.57
80712;BME280;70078;51.596;5.678;2023-08-21T09:20:21;102210.03;;;29.06;42.99
80712;BME280;70078;51.596;5.678;2023-08-21T09:22:53;102231.47;;;29.04;42.96
80712;BME280;70078;51.596;5.678;2023-08-21T09:25:20;102238.34;;;29.28;42.63
80712;BME280;70078;51.596;5.678;2023-08-21T09:27:46;102221.34;;;30.18;42.50
80712;BME280;70078;51.596;5.678;2023-08-21T09:30:11;102243.47;;;30.28;42.50
80712;BME280;70078;51.596;5.678;2023-08-21T09:32:58;102237.59;;;30.56;39.96
80712;BME280;70078;51.596;5.678;2023-08-21T09:35:26;102233.75;;;31.15;39.67
80712;BME280;70078;51.596;5.678;2023-08-21T09:37:51;102246.44;;;31.21;39.52
80712;BME280;70078;51.596;5.678;2023-08-21T09:40:21;102245.19;;;31.44;39.85
80712;BME280;70078;51.596;5.678;2023-08-21T09:42:52;102248.16;;;31.27;37.89
80712;BME280;70078;51.596;5.678;2023-08-21T09:45:22;102238.38;;;30.94;38.62
80712;BME280;70078;51.596;5.678;2023-08-21T09:47:48;102224.84;;;30.98;38.80
80712;BME280;70078;51.596;5.678;2023-08-21T09:50:14;102249.97;;;31.89;34.61
80712;BME280;70078;51.596;5.678;2023-08-21T09:52:40;102226.78;;;31.90;36.51
80712;BME280;70078;51.596;5.678;2023-08-21T09:55:07;102240.28;;;32.33;37.12
80712;BME280;70078;51.596;5.678;2023-08-21T09:57:32;102240.75;;;32.70;37.47
80712;BME280;70078;51.596;5.678;2023-08-21T09:59:59;102246.31;;;32.60;36.66
80712;BME280;70078;51.596;5.678;2023-08-21T10:02:26;102244.13;;;32.52;35.03
80712;BME280;70078;51.596;5.678;2023-08-21T10:04:53;102253.19;;;32.88;36.66
80712;BME280;70078;51.596;5.678;2023-08-21T10:07:21;102223.66;;;33.23;35.79
80712;BME280;70078;51.596;5.678;2023-08-21T10:09:49;102244.59;;;33.44;36.27
80712;BME280;70078;51.596;5.678;2023-08-21T10:12:16;102239.78;;;33.99;31.58
80712;BME280;70078;51.596;5.678;2023-08-21T10:14:42;102234.72;;;33.23;33.96
80712;BME280;70078;51.596;5.678;2023-08-21T10:17:11;102238.84;;;32.66;34.10
80712;BME280;70078;51.596;5.678;2023-08-21T10:19:36;102216.03;;;32.99;35.97
80712;BME280;70078;51.596;5.678;2023-08-21T10:22:01;102221.31;;;33.50;34.32
80712;BME280;70078;51.596;5.678;2023-08-21T10:24:34;102215.06;;;33.68;34.14
80712;BME280;70078;51.596;5.678;2023-08-21T10:27:00;102217.28;;;33.72;34.59
80712;BME280;70078;51.596;5.678;2023-08-21T10:29:25;102229.09;;;33.82;32.57
80712;BME280;70078;51.596;5.678;2023-08-21T10:32:02;102223.44;;;33.14;33.17
80712;BME280;70078;51.596;5.678;2023-08-21T10:34:37;102229.50;;;33.16;34.05
80712;BME280;70078;51.596;5.678;2023-08-21T10:37:07;102233.69;;;34.02;35.17
80712;BME280;70078;51.596;5.678;2023-08-21T10:39:34;102233.97;;;33.61;34.83
80712;BME280;70078;51.596;5.678;2023-08-21T10:42:10;102214.41;;;33.82;30.96
80712;BME280;70078;51.596;5.678;2023-08-21T10:44:49;102228.31;;;34.40;32.32
80712;BME280;70078;51.596;5.678;2023-08-21T10:47:20;102228.75;;;34.52;30.87
80712;BME280;70078;51.596;5.678;2023-08-21T10:49:49;102221.84;;;34.49;30.39
80712;BME280;70078;51.596;5.678;2023-08-21T10:52:20;102209.09;;;34.19;30.59
80712;BME280;70078;51.596;5.678;2023-08-21T10:54:48;102227.28;;;34.31;32.33
80712;BME280;70078;51.596;5.678;2023-08-21T10:57:14;102235.28;;;33.69;31.76
80712;BME280;70078;51.596;5.678;2023-08-21T10:59:58;102224.28;;;33.09;34.21
80712;BME280;70078;51.596;5.678;2023-08-21T11:02:24;102248.50;;;33.43;33.89
80712;BME280;70078;51.596;5.678;2023-08-21T11:04:50;102236.69;;;33.17;33.62
80712;BME280;70078;51.596;5.678;2023-08-21T11:07:16;102219.66;;;34.17;31.04
80712;BME280;70078;51.596;5.678;2023-08-21T11:09:42;102244.66;;;34.12;31.81
80712;BME280;70078;51.596;5.678;2023-08-21T11:12:13;102231.75;;;33.63;31.63
80712;BME280;70078;51.596;5.678;2023-08-21T11:14:39;102212.22;;;32.90;33.39
80712;BME280;70078;51.596;5.678;2023-08-21T11:17:05;102245.25;;;33.70;33.85
80712;BME280;70078;51.596;5.678;2023-08-21T11:19:32;102224.31;;;33.93;31.24
80712;BME280;70078;51.596;5.678;2023-08-21T11:21:59;102232.94;;;34.20;30.91
80712;BME280;70078;51.596;5.678;2023-08-21T11:24:39;102232.47;;;34.42;32.10
80712;BME280;70078;51.596;5.678;2023-08-21T11:27:05;102201.44;;;34.11;30.84
80712;BME280;70078;51.596;5.678;2023-08-21T11:29:47;102217.53;;;34.09;29.95
80712;BME280;70078;51.596;5.678;2023-08-21T11:32:23;102220.03;;;34.06;30.12
80712;BME280;70078;51.596;5.678;2023-08-21T11:34:53;102221.41;;;34.08;30.18
80712;BME280;70078;51.596;5.678;2023-08-21T11:37:22;102190.69;;;33.71;31.90
80712;BME280;70078;51.596;5.678;2023-08-21T11:39:57;102214.41;;;34.45;29.96
80712;BME280;70078;51.596;5.678;2023-08-21T11:42:30;102207.97;;;34.20;32.46
80712;BME280;70078;51.596;5.678;2023-08-21T11:44:56;102192.91;;;34.32;29.63
80712;BME280;70078;51.596;5.678;2023-08-21T11:47:23;102213.19;;;34.27;29.75
80712;BME280;70078;51.596;5.678;2023-08-21T11:49:49;102204.69;;;33.84;30.71
80712;BME280;70078;51.596;5.678;2023-08-21T11:52:22;102214.72;;;33.36;31.04
80712;BME280;70078;51.596;5.678;2023-08-21T11:54:50;102182.91;;;32.79;32.67
80712;BME280;70078;51.596;5.678;2023-08-21T11:57:17;102220.28;;;32.71;32.72
80712;BME280;70078;51.596;5.678;2023-08-21T11:59:43;102202.94;;;32.45;33.59
80712;BME280;70078;51.596;5.678;2023-08-21T12:02:21;102172.00;;;32.38;33.29
80712;BME280;70078;51.596;5.678;2023-08-21T12:04:52;102185.19;;;32.67;34.04
80712;BME280;70078;51.596;5.678;2023-08-21T12:07:18;102184.75;;;32.09;33.24
80712;BME280;70078;51.596;5.678;2023-08-21T12:09:46;102195.78;;;32.34;34.83
80712;BME280;70078;51.596;5.678;2023-08-21T12:12:13;102192.47;;;32.17;34.35
80712;BME280;70078;51.596;5.678;2023-08-21T12:14:38;102180.97;;;32.90;33.40
80712;BME280;70078;51.596;5.678;2023-08-21T12:17:04;102190.16;;;33.24;34.16
80712;BME280;70078;51.596;5.678;2023-08-21T12:19:30;102208.06;;;33.37;33.12
80712;BME280;70078;51.596;5.678;2023-08-21T12:21:56;102192.50;;;33.51;33.75
80712;BME280;70078;51.596;5.678;2023-08-21T12:24:21;102195.00;;;33.48;32.98
80712;BME280;70078;51.596;5.678;2023-08-21T12:26:46;102185.41;;;33.30;33.65
80712;BME280;70078;51.596;5.678;2023-08-21T12:29:12;102203.72;;;34.04;34.72
80712;BME280;70078;51.596;5.678;2023-08-21T12:31:37;102195.97;;;35.02;31.71
80712;BME280;70078;51.596;5.678;2023-08-21T12:34:02;102188.63;;;34.87;31.12
80712;BME280;70078;51.596;5.678;2023-08-21T12:36:28;102181.22;;;35.77;29.01
80712;BME280;70078;51.596;5.678;2023-08-21T12:38:54;102168.34;;;35.67;30.21
80712;BME280;70078;51.596;5.678;2023-08-21T12:41:19;102192.34;;;34.59;29.80
80712;BME280;70078;51.596;5.678;2023-08-21T12:43:45;102197.22;;;34.67;30.53
80712;BME280;70078;51.596;5.678;2023-08-21T12:46:11;102194.78;;;34.36;30.69
80712;BME280;70078;51.596;5.678;2023-08-21T12:48:36;102174.59;;;34.31;30.89
80712;BME280;70078;51.596;5.678;2023-08-21T12:51:02;102169.16;;;34.20;30.64